Time;durP1;ratioP1;P1;durP2;ratioP2;P2;SDS_P1;SDS_P2;PMS_P1;PMS_P2;Temp;Humidity;BMP_temperature;BMP_pressure;BME280_temperature;BME280_humidity;BME280_pressure;Samples;Min_cycle;Max_cycle;Signal;HPM_P1;HPM_P2
2021/01/13 00:00:21;;;;;;;7.03;2.35;;;1.90;91.10;;;;;;5056935;28;20031;-87
2021/01/13 00:02:53;;;;;;;8.45;2.92;;;1.80;91.10;;;;;;5055677;28;20031;-87
2021/01/13 00:09:03;;;;;;;7.85;2.70;;;1.80;91.20;;;;;;5045574;28;20133;-88
2021/01/13 00:12:03;;;;;;;7.75;2.65;;;1.90;91.20;;;;;;5054958;28;20105;-88
2021/01/13 00:14:37;;;;;;;6.82;2.20;;;1.80;91.20;;;;;;5053503;28;20076;-88
2021/01/13 00:23:39;;;;;;;6.85;2.40;;;1.80;91.20;;;;;;5029052;28;20040;-88
2021/01/13 00:26:36;;;;;;;7.60;2.58;;;1.80;91.20;;;;;;5039024;28;20029;-88
2021/01/13 00:29:09;;;;;;;7.47;2.20;;;1.80;91.20;;;;;;5055134;28;20021;-89
2021/01/13 00:42:51;;;;;;;;;;;;;;;;;;;;;
2021/01/13 00:46:00;;;;;;;4.85;1.77;;;1.70;91.20;;;;;;5055881;28;20029;-88
2021/01/13 00:49:01;;;;;;;7.75;2.08;;;1.70;91.30;;;;;;5043045;28;20053;-88
2021/01/13 00:51:47;;;;;;;8.80;2.15;;;1.80;91.30;;;;;;5049485;28;20029;-88
2021/01/13 00:54:17;;;;;;;10.55;2.22;;;1.70;91.30;;;;;;5057174;28;20055;-88
2021/01/13 00:57:00;;;;;;;;;;;;;;;;;;;;;
2021/01/13 00:59:39;;;;;;;;;;;;;;;;;;;;;
2021/01/13 01:02:15;;;;;;;5.90;1.65;;;1.70;91.40;;;;;;5076296;28;20043;-89
2021/01/13 01:04:56;;;;;;;10.82;2.50;;;1.70;91.40;;;;;;5074914;28;20032;-88
2021/01/13 01:07:43;;;;;;;7.05;1.80;;;1.70;91.40;;;;;;5074793;28;20463;-89
2021/01/13 01:10:28;;;;;;;6.82;1.83;;;1.70;91.40;;;;;;5074130;28;20027;-88
2021/01/13 01:13:24;;;;;;;;;;;;;;;;;;;;;
2021/01/13 01:16:16;;;;;;;;;;;;;;;;;;;;;
2021/01/13 01:19:07;;;;;;;5.95;1.65;;;1.80;91.50;;;;;;5074819;28;20467;-89
2021/01/13 01:21:51;;;;;;;9.48;2.17;;;1.90;91.80;;;;;;5073973;28;20035;-88
2021/01/13 01:27:50;;;;;;;6.00;1.88;;;1.90;91.60;;;;;;5040396;28;20033;-88
2021/01/13 01:30:30;;;;;;;4.78;1.65;;;2.00;91.60;;;;;;5057799;28;20029;-88
2021/01/13 01:33:16;;;;;;;;;;;;;;;;;;;;;
2021/01/13 01:36:13;;;;;;;4.88;1.55;;;2.00;91.60;;;;;;5075344;28;20359;-88
2021/01/13 01:39:16;;;;;;;;;;;;;;;;;;;;;
2021/01/13 01:42:15;;;;;;;;;;;;;;;;;;;;;
2021/01/13 01:44:46;;;;;;;6.97;1.60;;;2.00;91.60;;;;;;5066197;28;20045;-85
2021/01/13 01:47:36;;;;;;;5.28;1.75;;;2.00;91.60;;;;;;5074942;28;20017;-86
2021/01/13 01:50:22;;;;;;;6.57;1.55;;;2.10;91.60;;;;;;5059783;28;20024;-86
2021/01/13 01:53:09;;;;;;;;;;;;;;;;;;;;;
2021/01/13 01:55:49;;;;;;;8.45;1.77;;;2.10;91.70;;;;;;5075687;28;20420;-86
2021/01/13 01:58:44;;;;;;;;;;;;;;;;;;;;;
2021/01/13 02:01:35;;;;;;;7.82;1.55;;;2.10;91.70;;;;;;5073682;28;20024;-86
2021/01/13 02:04:17;;;;;;;8.77;1.80;;;2.10;91.70;;;;;;5073150;28;20021;-86
2021/01/13 02:06:58;;;;;;;6.32;1.42;;;2.10;91.70;;;;;;5073120;28;20016;-87
2021/01/13 02:09:49;;;;;;;4.05;1.10;;;2.10;91.70;;;;;;5073941;28;20086;-85
2021/01/13 02:12:40;;;;;;;;;;;;;;;;;;;;;
2021/01/13 02:15:40;;;;;;;5.68;1.40;;;2.00;91.70;;;;;;5073153;28;20032;-86
2021/01/13 02:18:18;;;;;;;5.82;1.40;;;2.10;91.70;;;;;;5073147;28;20049;-86
2021/01/13 02:21:03;;;;;;;6.50;1.30;;;2.10;91.70;;;;;;5072799;28;20020;-86
2021/01/13 02:23:55;;;;;;;5.90;1.48;;;2.10;91.70;;;;;;5072685;28;20020;-86
2021/01/13 02:27:09;;;;;;;8.20;1.58;;;2.10;91.70;;;;;;5072814;28;20377;-86
2021/01/13 02:32:53;;;;;;;4.88;1.23;;;2.10;91.70;;;;;;5062233;28;20487;-86
2021/01/13 02:35:51;;;;;;;8.23;1.63;;;2.10;91.70;;;;;;5056678;28;20071;-87
2021/01/13 02:39:07;;;;;;;8.30;2.05;;;2.10;91.70;;;;;;5072598;28;20443;-86
2021/01/13 02:41:45;;;;;;;4.60;1.10;;;2.10;91.70;;;;;;5070052;28;20127;-87
2021/01/13 02:44:36;;;;;;;;;;;;;;;;;;;;;
2021/01/13 02:47:40;;;;;;;3.00;1.15;;;2.10;91.80;;;;;;5074886;28;20016;-86
2021/01/13 02:50:37;;;;;;;6.47;2.00;;;2.10;91.80;;;;;;5067538;28;20062;-86
2021/01/13 02:53:25;;;;;;;5.55;1.52;;;2.00;91.80;;;;;;5072119;28;20383;-86
2021/01/13 02:56:20;;;;;;;5.65;1.70;;;2.00;91.80;;;;;;5071090;28;20108;-87
2021/01/13 02:59:05;;;;;;;5.13;1.83;;;2.10;91.80;;;;;;5072258;28;20025;-86
2021/01/13 03:02:14;;;;;;;;;;;;;;;;;;;;;
2021/01/13 03:04:50;;;;;;;6.60;2.17;;;2.10;91.80;;;;;;5068744;28;20028;-86
2021/01/13 03:07:45;;;;;;;8.35;2.05;;;2.10;91.80;;;;;;5054704;28;20098;-87
2021/01/13 03:10:35;;;;;;;6.55;2.13;;;2.10;91.80;;;;;;5072723;28;20048;-87
2021/01/13 03:13:14;;;;;;;7.72;1.92;;;2.10;91.70;;;;;;5074031;28;20028;-86
2021/01/13 03:16:04;;;;;;;7.18;2.45;;;2.10;91.70;;;;;;5044868;28;20455;-87
2021/01/13 03:19:22;;;;;;;6.57;2.05;;;2.10;91.70;;;;;;5044828;28;20028;-86
2021/01/13 03:22:25;;;;;;;6.85;2.10;;;2.10;91.70;;;;;;5076393;28;20115;-86
2021/01/13 03:25:08;;;;;;;;;;;;;;;;;;;;;
2021/01/13 03:27:51;;;;;;;7.25;2.15;;;2.10;91.70;;;;;;5077110;28;20024;-86
2021/01/13 03:33:52;;;;;;;8.68;2.20;;;2.20;91.70;;;;;;5077117;28;20115;-87
2021/01/13 03:36:42;;;;;;;;;;;;;;;;;;;;;
2021/01/13 03:39:14;;;;;;;6.80;1.90;;;2.20;91.80;;;;;;5077168;28;20021;-86
2021/01/13 03:41:55;;;;;;;5.18;1.90;;;2.20;91.80;;;;;;5060425;28;20036;-87
2021/01/13 03:44:31;;;;;;;11.13;3.22;;;2.20;91.80;;;;;;5075844;28;20525;-87
2021/01/13 03:47:25;;;;;;;;;;;;;;;;;;;;;
2021/01/13 03:50:02;;;;;;;;;;;;;;;;;;;;;
2021/01/13 03:53:01;;;;;;;8.93;2.00;;;2.30;91.90;;;;;;5081854;28;20043;-86
2021/01/13 03:55:38;;;;;;;7.53;2.10;;;2.30;91.90;;;;;;5064875;28;20032;-87
2021/01/13 03:58:39;;;;;;;5.25;1.75;;;2.30;91.90;;;;;;5078584;28;20020;-86
2021/01/13 04:01:26;;;;;;;6.13;2.03;;;2.30;91.90;;;;;;5078323;28;20031;-86
2021/01/13 04:04:26;;;;;;;4.97;1.42;;;2.40;92.00;;;;;;5078586;28;20499;-86
2021/01/13 04:07:17;;;;;;;6.95;1.85;;;2.40;92.00;;;;;;5079438;28;20020;-86
2021/01/13 04:10:39;;;;;;;4.40;1.25;;;2.40;92.00;;;;;;5061662;28;20056;-87
2021/01/13 04:13:34;;;;;;;4.90;1.40;;;2.40;92.00;;;;;;5054178;28;20044;-86
2021/01/13 04:16:03;;;;;;;4.10;1.40;;;2.50;92.00;;;;;;5078559;28;20076;-86
2021/01/13 04:18:40;;;;;;;5.43;1.42;;;2.50;92.00;;;;;;5096265;28;20020;-86
2021/01/13 04:21:27;;;;;;;6.03;1.73;;;2.50;92.10;;;;;;5078525;28;20024;-87
2021/01/13 04:24:06;;;;;;;7.00;1.60;;;2.50;92.10;;;;;;5096731;28;20065;-88
2021/01/13 04:26:33;;;;;;;5.78;1.52;;;2.60;92.10;;;;;;5079305;28;20436;-86
2021/01/13 04:29:25;;;;;;;8.77;1.60;;;2.60;92.10;;;;;;5061347;28;20028;-86
2021/01/13 04:32:13;;;;;;;4.20;1.30;;;2.60;92.20;;;;;;5095298;28;20039;-86
2021/01/13 04:34:56;;;;;;;;;;;;;;;;;;;;;
2021/01/13 04:37:36;;;;;;;5.80;1.23;;;2.70;92.20;;;;;;5096248;28;20024;-86
2021/01/13 04:40:35;;;;;;;7.90;1.52;;;2.70;92.20;;;;;;5078347;28;20020;-86
2021/01/13 04:43:21;;;;;;;6.78;1.30;;;2.70;92.20;;;;;;5072183;28;20028;-87
2021/01/13 04:45:52;;;;;;;7.18;1.27;;;2.70;92.20;;;;;;5078309;28;20038;-86
2021/01/13 04:48:23;;;;;;;6.23;1.17;;;2.80;92.20;;;;;;5077753;28;20016;-87
2021/01/13 04:51:14;;;;;;;7.63;1.10;;;2.80;92.30;;;;;;5078152;28;20067;-86
2021/01/13 04:53:47;;;;;;;3.38;0.90;;;2.80;92.30;;;;;;5095892;28;20048;-86
2021/01/13 04:56:53;;;;;;;5.45;1.33;;;2.80;92.30;;;;;;5078080;28;20020;-86
2021/01/13 04:59:45;;;;;;;;;;;;;;;;;;;;;
2021/01/13 05:02:38;;;;;;;8.25;1.23;;;2.90;92.30;;;;;;5096071;28;20451;-86
2021/01/13 05:05:09;;;;;;;3.38;0.90;;;2.90;92.30;;;;;;5094344;28;20421;-86
2021/01/13 05:07:42;;;;;;;3.45;1.23;;;2.90;92.40;;;;;;5077606;28;20418;-86
2021/01/13 05:10:14;;;;;;;4.88;1.25;;;2.90;92.40;;;;;;5060747;28;20028;-85
2021/01/13 05:12:58;;;;;;;2.25;0.70;;;2.90;92.40;;;;;;5077486;28;20070;-85
2021/01/13 05:15:32;;;;;;;5.03;1.10;;;3.00;92.40;;;;;;5095170;28;20364;-86
2021/01/13 05:18:11;;;;;;;3.17;1.00;;;2.90;92.60;;;;;;5077241;28;20454;-86
2021/01/13 05:20:53;;;;;;;7.53;1.20;;;3.00;92.40;;;;;;5078057;28;20085;-85
2021/01/13 05:23:39;;;;;;;;;;;;;;;;;;;;;
2021/01/13 05:26:41;;;;;;;4.80;1.08;;;2.90;92.40;;;;;;5095472;28;20067;-85
2021/01/13 05:29:24;;;;;;;;;;;2.90;92.40;;;;;;5063916;28;20032;-86
2021/01/13 05:32:09;;;;;;;;;;;;;;;;;;;;;
2021/01/13 05:38:08;;;;;;;;;;;;;;;;;;;;;
2021/01/13 05:41:03;;;;;;;4.93;0.88;;;2.90;92.40;;;;;;5094717;28;20022;-87
2021/01/13 05:43:34;;;;;;;6.75;1.27;;;2.80;92.30;;;;;;5075922;28;20023;-87
2021/01/13 05:49:18;;;;;;;;;;;;;;;;;;;;;
2021/01/13 05:51:48;;;;;;;6.10;1.50;;;2.90;92.30;;;;;;5094034;28;20038;-87
2021/01/13 05:54:30;;;;;;;;;;;;;;;;;;;;;
2021/01/13 05:57:12;;;;;;;;;;;;;;;;;;;;;
2021/01/13 06:00:07;;;;;;;9.05;2.90;;;2.80;92.30;;;;;;5094953;28;20020;-88
2021/01/13 06:02:56;;;;;;;6.07;2.00;;;2.80;92.30;;;;;;5093534;28;20028;-87
2021/01/13 06:05:25;;;;;;;7.18;2.80;;;2.80;92.30;;;;;;5076427;28;20020;-88
2021/01/13 06:08:41;;;;;;;;;;;;;;;;;;;;;
2021/01/13 06:11:56;;;;;;;5.00;2.00;;;2.80;92.40;;;;;;5095175;28;20028;-91
2021/01/13 06:15:02;;;;;;;11.93;2.38;;;2.80;92.40;;;;;;5065462;28;20091;-90
2021/01/13 06:18:17;;;;;;;7.47;2.15;;;2.80;92.40;;;;;;5062883;28;20042;-91
2021/01/13 06:21:08;;;;;;;10.77;3.60;;;2.80;92.40;;;;;;5078160;28;20035;-90
2021/01/13 06:24:12;;;;;;;;;;;;;;;;;;;;;
2021/01/13 06:27:23;;;;;;;8.77;2.60;;;2.80;92.40;;;;;;5090466;28;20038;-89
2021/01/13 06:30:09;;;;;;;7.53;2.08;;;2.70;92.40;;;;;;5014065;28;20039;-88
2021/01/13 06:33:00;;;;;;;;;;;;;;;;;;;;;
2021/01/13 06:35:46;;;;;;;11.65;2.58;;;2.70;92.40;;;;;;5094683;28;20020;-89
2021/01/13 06:38:52;;;;;;;6.63;2.25;;;2.70;92.40;;;;;;5076346;28;20028;-88
2021/01/13 06:42:06;;;;;;;8.55;2.00;;;2.70;92.40;;;;;;5076929;28;20031;-87
2021/01/13 06:45:52;;;;;;;;;;;;;;;;;;;;;
2021/01/13 06:48:07;;;;;;;8.68;2.08;;;2.70;92.60;;;;;;5084794;28;20055;-88
2021/01/13 06:53:54;;;;;;;;;;;;;;;;;;;;;
2021/01/13 06:56:45;;;;;;;;;;;;;;;;;;;;;
2021/01/13 06:59:17;;;;;;;17.65;4.93;;;2.60;92.30;;;;;;5049308;28;20475;-85
2021/01/13 07:02:03;;;;;;;10.52;3.38;;;2.60;92.60;;;;;;5052122;28;20461;-85
2021/01/13 07:04:44;;;;;;;10.00;3.05;;;2.60;92.30;;;;;;5035242;28;20033;-85
2021/01/13 07:07:30;;;;;;;9.32;2.72;;;2.60;92.30;;;;;;5052309;28;20035;-85
2021/01/13 07:09:55;;;;;;;5.43;2.10;;;2.60;92.30;;;;;;5053019;28;20021;-85
2021/01/13 07:12:41;;;;;;;7.60;2.25;;;2.60;92.30;;;;;;5053399;28;20461;-85
2021/01/13 07:15:36;;;;;;;9.93;2.28;;;2.60;92.30;;;;;;5052804;28;20029;-88
2021/01/13 07:18:13;;;;;;;8.27;2.42;;;2.60;92.30;;;;;;5051007;28;20060;-85
2021/01/13 07:21:14;;;;;;;;;;;;;;;;;;;;;
2021/01/13 07:23:48;;;;;;;7.75;1.90;;;2.60;92.30;;;;;;5053828;28;20027;-87
2021/01/13 07:26:42;;;;;;;8.05;1.90;;;2.60;92.30;;;;;;5036393;28;20021;-87
2021/01/13 07:29:49;;;;;;;8.13;1.80;;;2.60;92.50;;;;;;5038454;28;20025;-88
2021/01/13 07:32:42;;;;;;;5.45;1.50;;;2.60;92.20;;;;;;5050979;28;20033;-86
2021/01/13 07:35:39;;;;;;;;;;;;;;;;;;;;;
2021/01/13 07:38:42;;;;;;;8.45;2.10;;;2.50;92.20;;;;;;5055552;28;20099;-89
2021/01/13 07:41:30;;;;;;;7.32;2.38;;;2.50;92.20;;;;;;5061334;28;20024;-88
2021/01/13 07:44:55;;;;;;;;;;;;;;;;;;;;;
2021/01/13 07:51:43;;;;;;;6.50;1.88;;;2.50;92.20;;;;;;4970307;28;20121;-89
2021/01/13 07:55:21;;;;;;;;;;;;;;;;;;;;;
2021/01/13 07:58:23;;;;;;;7.45;1.90;;;2.50;92.20;;;;;;5067860;28;20024;-87
2021/01/13 08:01:22;;;;;;;;;;;;;;;;;;;;;
2021/01/13 08:04:28;;;;;;;6.65;2.30;;;2.50;92.20;;;;;;5070087;28;20025;-87
2021/01/13 08:07:17;;;;;;;10.32;2.33;;;2.50;92.20;;;;;;5063480;28;20025;-90
2021/01/13 08:13:42;;;;;;;;;;;;;;;;;;;;;
2021/01/13 08:16:30;;;;;;;;;;;;;;;;;;;;;
2021/01/13 08:22:44;;;;;;;;;;;;;;;;;;;;;
2021/01/13 08:25:42;;;;;;;4.67;1.60;;;2.50;92.10;;;;;;5052486;28;20029;-86
2021/01/13 08:28:44;;;;;;;;;;;;;;;;;;;;;
2021/01/13 08:31:29;;;;;;;8.55;2.63;;;2.50;92.10;;;;;;5049415;28;20054;-86
2021/01/13 08:34:26;;;;;;;;;;;;;;;;;;;;;
2021/01/13 08:37:04;;;;;;;8.10;2.30;;;2.50;92.10;;;;;;5072319;28;21493;-87
2021/01/13 08:39:42;;;;;;;;;;;;;;;;;;;;;
2021/01/13 08:42:56;;;;;;;6.80;2.00;;;2.50;92.10;;;;;;5070279;28;20492;-86
2021/01/13 08:46:13;;;;;;;;;;;;;;;;;;;;;
2021/01/13 08:48:50;;;;;;;8.23;1.92;;;2.50;92.20;;;;;;5056996;28;20041;-86
2021/01/13 08:51:27;;;;;;;9.93;1.90;;;2.50;92.20;;;;;;5063887;28;20055;-86
2021/01/13 08:54:14;;;;;;;8.75;1.80;;;2.50;92.20;;;;;;5074442;28;20118;-86
2021/01/13 08:56:56;;;;;;;4.38;1.40;;;2.60;92.30;;;;;;5075256;28;20034;-86
2021/01/13 08:59:32;;;;;;;6.47;1.55;;;2.50;92.20;;;;;;5074434;28;20024;-86
2021/01/13 09:02:23;;;;;;;4.82;1.60;;;2.60;92.30;;;;;;5054003;28;20064;-86
2021/01/13 09:05:10;;;;;;;;;;;;;;;;;;;;;
2021/01/13 09:08:09;;;;;;;9.50;2.63;;;2.60;92.30;;;;;;5052823;28;20027;-87
2021/01/13 09:11:43;;;;;;;;;;;;;;;;;;;;;
2021/01/13 09:14:27;;;;;;;5.18;1.90;;;2.70;92.30;;;;;;5040567;28;20112;-86
2021/01/13 09:17:31;;;;;;;;;;;;;;;;;;;;;
2021/01/13 09:21:02;;;;;;;;;;;;;;;;;;;;;
2021/01/13 09:24:14;;;;;;;5.18;1.65;;;2.80;92.30;;;;;;5025695;28;20044;-87
2021/01/13 09:26:58;;;;;;;8.70;2.38;;;2.90;92.30;;;;;;5053129;28;20025;-88
2021/01/13 09:50:29;;;;;;;;;;;;;;;;;;;;;
2021/01/13 09:53:59;;;;;;;;;;;;;;;;;;;;;
2021/01/13 09:56:40;;;;;;;6.70;2.10;;;3.30;92.20;;;;;;4891008;29;20034;-88
2021/01/13 10:06:32;;;;;;;6.90;1.83;;;3.40;92.10;;;;;;4950619;29;20515;-89
2021/01/13 10:09:39;;;;;;;;;;;;;;;;;;;;;
2021/01/13 10:29:10;;;;;;;6.88;2.22;;;3.90;92.00;;;;;;4981308;28;20708;-88
2021/01/13 10:57:59;;;;;;;8.07;3.17;;;4.50;91.60;;;;;;4934185;28;20034;-88
2021/01/13 11:04:49;;;;;;;;;;;;;;;;;;;;;
2021/01/13 11:07:49;;;;;;;9.68;2.50;;;4.70;91.50;;;;;;4859034;29;20038;-88
2021/01/13 11:27:46;;;;;;;8.93;2.70;;;5.00;91.30;;;;;;4914260;29;20032;-88
2021/01/13 11:34:33;;;;;;;7.75;3.50;;;5.00;91.00;;;;;;5011958;28;20045;-88
2021/01/13 11:41:19;;;;;;;9.55;3.10;;;5.10;90.90;;;;;;4999668;28;20516;-89
2021/01/13 11:44:37;;;;;;;11.48;3.47;;;5.20;90.90;;;;;;4996902;28;20021;-90
2021/01/13 11:54:30;;;;;;;4.73;2.30;;;5.30;90.70;;;;;;4993846;28;20101;-87
2021/01/13 12:01:41;;;;;;;;;;;;;;;;;;;;;
2021/01/13 12:14:38;;;;;;;;;;;;;;;;;;;;;
2021/01/13 12:31:30;;;;;;;;;;;;;;;;;;;;;
2021/01/13 12:35:00;;;;;;;;;;;;;;;;;;;;;
2021/01/13 14:28:43;;;;;;;;;;;;;;;;;;;;;
2021/01/13 14:32:30;;;;;;;;;;;;;;;;;;;;;
2021/01/13 14:49:18;;;;;;;;;;;;;;;;;;;;;
2021/01/13 15:07:14;;;;;;;;;;;;;;;;;;;;;
2021/01/13 15:09:55;;;;;;;7.00;1.73;;;5.10;81.80;;;;;;4753510;30;20039;-88
2021/01/13 15:22:17;;;;;;;4.68;1.60;;;4.90;82.50;;;;;;4843018;29;20037;-86
2021/01/13 15:29:30;;;;;;;4.05;1.55;;;4.80;82.50;;;;;;4827097;29;20054;-89
2021/01/13 15:32:34;;;;;;;;;;;;;;;;;;;;;
2021/01/13 15:38:45;;;;;;;;;;;;;;;;;;;;;
2021/01/13 15:41:39;;;;;;;6.63;1.70;;;4.70;83.00;;;;;;4802254;29;20399;-88
2021/01/13 15:55:11;;;;;;;;;;;;;;;;;;;;;
2021/01/13 15:58:24;;;;;;;;;;;;;;;;;;;;;
2021/01/13 16:01:42;;;;;;;;;;;;;;;;;;;;;
2021/01/13 16:04:31;;;;;;;4.00;1.48;;;4.60;83.20;;;;;;4959924;29;20015;-90
2021/01/13 16:10:50;;;;;;;5.40;1.70;;;4.60;83.10;;;;;;4958232;28;20030;-87
2021/01/13 16:16:24;;;;;;;4.88;1.58;;;4.60;83.20;;;;;;4956174;28;20395;-87
2021/01/13 16:21:51;;;;;;;5.53;1.70;;;4.60;83.30;;;;;;5025653;28;20072;-88
2021/01/13 16:27:42;;;;;;;;;;;;;;;;;;;;;
2021/01/13 16:30:18;;;;;;;3.63;1.40;;;4.60;83.30;;;;;;5036691;28;20040;-88
2021/01/13 16:33:03;;;;;;;6.05;1.63;;;4.60;83.30;;;;;;5019059;28;20041;-89
2021/01/13 16:35:42;;;;;;;;;;;;;;;;;;;;;
2021/01/13 16:38:27;;;;;;;;;;;;;;;;;;;;;
2021/01/13 16:40:58;;;;;;;5.70;1.67;;;4.60;83.50;;;;;;5020562;28;20030;-86
2021/01/13 16:43:35;;;;;;;7.95;2.03;;;4.60;83.40;;;;;;5018842;28;20021;-86
2021/01/13 16:46:09;;;;;;;6.78;1.60;;;4.60;83.50;;;;;;5018265;28;20104;-87
2021/01/13 16:48:37;;;;;;;6.57;1.90;;;4.60;83.50;;;;;;5018329;28;20101;-87
2021/01/13 16:51:28;;;;;;;5.15;1.90;;;4.60;83.50;;;;;;5017998;28;20441;-88
2021/01/13 16:54:25;;;;;;;;;;;;;;;;;;;;;
2021/01/13 16:57:17;;;;;;;;;;;;;;;;;;;;;
2021/01/13 17:00:19;;;;;;;6.68;1.60;;;4.50;84.00;;;;;;5035932;28;20017;-86
2021/01/13 17:02:58;;;;;;;6.90;2.00;;;4.60;84.10;;;;;;5018080;28;20088;-86
2021/01/13 17:05:34;;;;;;;4.65;1.60;;;4.50;84.10;;;;;;5002972;28;20357;-87
2021/01/13 17:11:25;;;;;;;5.38;1.70;;;4.50;84.30;;;;;;5023971;28;20033;-86
2021/01/13 17:14:17;;;;;;;5.78;2.03;;;4.50;84.30;;;;;;5021575;28;20028;-87
2021/01/13 17:16:57;;;;;;;8.85;2.10;;;4.50;84.40;;;;;;5017563;28;20017;-85
2021/01/13 17:19:30;;;;;;;9.68;2.13;;;4.50;84.50;;;;;;5017542;28;20076;-86
2021/01/13 17:21:59;;;;;;;8.88;2.15;;;4.50;84.50;;;;;;5017407;28;20018;-86
2021/01/13 17:24:35;;;;;;;;;;;;;;;;;;;;;
2021/01/13 17:27:22;;;;;;;5.47;1.88;;;4.50;84.70;;;;;;5036960;28;20021;-87
2021/01/13 17:29:50;;;;;;;8.23;2.10;;;4.50;84.80;;;;;;5017399;28;20045;-86
2021/01/13 17:32:28;;;;;;;9.23;1.98;;;4.40;84.90;;;;;;5015760;28;20041;-86
2021/01/13 17:35:04;;;;;;;5.85;1.90;;;4.40;84.90;;;;;;5018185;28;20033;-86
2021/01/13 17:37:45;;;;;;;6.63;2.13;;;4.40;85.00;;;;;;5019267;28;20323;-86
2021/01/13 17:40:23;;;;;;;8.75;2.22;;;4.40;85.10;;;;;;5018315;28;20136;-88
2021/01/13 17:43:05;;;;;;;6.95;1.77;;;4.40;85.20;;;;;;5021756;28;20387;-87
2021/01/13 17:45:40;;;;;;;5.40;2.35;;;4.40;85.40;;;;;;5055918;28;20067;-87
2021/01/13 17:48:11;;;;;;;6.50;1.70;;;4.40;85.50;;;;;;5037016;28;20021;-87
2021/01/13 17:50:50;;;;;;;6.97;1.95;;;4.40;85.60;;;;;;5036719;28;20472;-87
2021/01/13 17:53:38;;;;;;;5.55;1.90;;;4.40;85.80;;;;;;5021585;28;20029;-88
2021/01/13 17:56:32;;;;;;;7.55;2.65;;;4.30;85.80;;;;;;5020470;28;20045;-87
2021/01/13 17:59:00;;;;;;;10.80;1.90;;;4.30;86.00;;;;;;4966840;28;20036;-87
2021/01/13 18:01:31;;;;;;;9.23;2.17;;;4.40;86.10;;;;;;5020077;28;20025;-86
2021/01/13 18:04:27;;;;;;;4.95;1.80;;;4.30;86.20;;;;;;5037039;28;20021;-87
2021/01/13 18:06:53;;;;;;;6.60;1.95;;;4.30;86.30;;;;;;5026896;28;20032;-86
2021/01/13 18:09:22;;;;;;;6.82;2.63;;;4.30;86.50;;;;;;5036337;28;20079;-85
2021/01/13 18:11:57;;;;;;;10.25;3.70;;;4.30;86.50;;;;;;5036666;28;20457;-87
2021/01/13 18:14:30;;;;;;;12.52;4.05;;;4.30;86.60;;;;;;5036046;28;20033;-88
2021/01/13 18:17:06;;;;;;;7.68;3.63;;;4.30;86.60;;;;;;5020821;28;20017;-87
2021/01/13 18:19:32;;;;;;;7.40;3.10;;;4.20;86.60;;;;;;5036994;28;20052;-87
2021/01/13 18:22:05;;;;;;;5.75;2.78;;;4.20;86.70;;;;;;5036646;28;20052;-85
2021/01/13 18:24:31;;;;;;;11.45;4.07;;;4.20;86.80;;;;;;5036351;28;20090;-87
2021/01/13 18:27:33;;;;;;;15.50;5.28;;;4.20;86.80;;;;;;5035944;28;20453;-87
2021/01/13 18:30:02;;;;;;;11.45;4.40;;;4.20;87.00;;;;;;5035990;28;20484;-88
2021/01/13 18:32:45;;;;;;;9.10;3.15;;;4.10;87.00;;;;;;5034866;28;20037;-87
2021/01/13 18:35:16;;;;;;;7.80;3.05;;;4.10;87.20;;;;;;5036240;28;20021;-88
2021/01/13 18:37:56;;;;;;;10.73;2.72;;;4.10;87.30;;;;;;5036506;28;20056;-87
2021/01/13 18:40:29;;;;;;;7.72;2.63;;;4.10;87.40;;;;;;5037062;28;20052;-88
2021/01/13 18:43:35;;;;;;;6.85;2.90;;;4.00;87.50;;;;;;5035523;28;20032;-87
2021/01/13 18:46:19;;;;;;;;;;;;;;;;;;;;;
2021/01/13 18:48:45;;;;;;;6.72;2.30;;;4.00;87.70;;;;;;5024304;28;20039;-88
2021/01/13 18:51:53;;;;;;;4.72;2.40;;;4.00;87.80;;;;;;5035395;28;20119;-86
2021/01/13 18:54:35;;;;;;;5.88;2.63;;;4.00;87.90;;;;;;5037113;28;20049;-86
2021/01/13 18:57:13;;;;;;;7.13;2.30;;;4.00;88.00;;;;;;5036036;28;20104;-87
2021/01/13 19:00:01;;;;;;;5.55;2.50;;;4.00;88.10;;;;;;5036792;28;20021;-87
2021/01/13 19:02:38;;;;;;;8.40;2.60;;;4.00;88.20;;;;;;5036964;28;20017;-86
2021/01/13 19:05:54;;;;;;;7.78;2.75;;;4.00;88.40;;;;;;5020015;28;20029;-87
2021/01/13 19:08:31;;;;;;;8.20;2.33;;;4.00;88.50;;;;;;5035256;28;20033;-88
2021/01/13 19:11:17;;;;;;;;;;;;;;;;;;;;;
2021/01/13 19:14:20;;;;;;;;;;;;;;;;;;;;;
2021/01/13 19:17:10;;;;;;;6.22;2.58;;;4.00;88.80;;;;;;5051214;28;20091;-88
2021/01/13 19:19:41;;;;;;;9.68;2.95;;;4.00;88.90;;;;;;5035674;28;20028;-87
2021/01/13 19:22:20;;;;;;;;;;;;;;;;;;;;;
2021/01/13 19:24:56;;;;;;;7.00;2.50;;;4.10;89.10;;;;;;5037670;28;20029;-87
2021/01/13 19:28:17;;;;;;;6.05;2.03;;;4.10;89.10;;;;;;5036071;28;20032;-89
2021/01/13 19:30:49;;;;;;;5.78;1.88;;;4.10;89.20;;;;;;4956474;28;20058;-86
2021/01/13 19:33:51;;;;;;;7.30;2.33;;;4.10;89.20;;;;;;4998969;28;20052;-85
2021/01/13 19:36:33;;;;;;;5.53;2.10;;;4.10;89.30;;;;;;4993867;28;20523;-87
2021/01/13 19:39:01;;;;;;;;;;;4.10;89.40;;;;;;4997157;28;20034;-89
2021/01/13 19:41:30;;;;;;;6.57;2.75;;;4.20;89.60;;;;;;4996199;28;19901;-86
2021/01/13 19:44:14;;;;;;;;;;;;;;;;;;;;;
2021/01/13 19:47:03;;;;;;;4.47;1.98;;;4.20;89.80;;;;;;5026846;28;20346;-88
2021/01/13 19:49:34;;;;;;;8.63;2.30;;;4.20;89.90;;;;;;5015767;28;20017;-89
2021/01/13 19:52:03;;;;;;;7.80;2.38;;;4.20;90.00;;;;;;5031972;28;20513;-88
2021/01/13 19:54:36;;;;;;;6.90;2.35;;;4.30;90.10;;;;;;5016530;28;20025;-85
2021/01/13 19:57:10;;;;;;;9.90;3.95;;;4.30;90.20;;;;;;4983867;28;20041;-87
2021/01/13 19:59:51;;;;;;;8.55;2.55;;;4.30;90.20;;;;;;5000604;28;20049;-85
2021/01/13 20:02:23;;;;;;;12.18;3.22;;;4.30;90.30;;;;;;5001691;28;20030;-86
2021/01/13 20:04:54;;;;;;;14.48;3.58;;;4.30;90.50;;;;;;4999608;28;20076;-86
2021/01/13 20:07:20;;;;;;;8.00;2.53;;;4.30;90.60;;;;;;5008172;28;20469;-86
2021/01/13 20:09:58;;;;;;;7.35;2.72;;;4.30;90.60;;;;;;5016668;28;20021;-86
2021/01/13 20:12:47;;;;;;;7.18;3.03;;;4.30;90.70;;;;;;5017462;28;20121;-87
2021/01/13 20:15:30;;;;;;;9.32;2.80;;;4.30;90.70;;;;;;4992986;28;20034;-86
2021/01/13 20:18:04;;;;;;;7.13;2.50;;;4.40;90.70;;;;;;4999633;28;20081;-87
2021/01/13 20:20:33;;;;;;;12.25;3.95;;;4.40;90.70;;;;;;4999037;28;20108;-86
2021/01/13 20:25:54;;;;;;;7.45;2.90;;;4.40;91.10;;;;;;5012674;28;20037;-87
2021/01/13 20:28:25;;;;;;;8.30;2.60;;;4.40;90.90;;;;;;4983253;28;20058;-87
2021/01/13 20:31:17;;;;;;;7.28;2.47;;;4.40;90.90;;;;;;5002744;28;20041;-85
2021/01/13 20:33:51;;;;;;;8.73;2.40;;;4.40;90.90;;;;;;5020577;28;20132;-86
2021/01/13 20:36:25;;;;;;;14.80;3.17;;;4.50;91.00;;;;;;5019010;28;20067;-86
2021/01/13 20:38:55;;;;;;;6.20;2.30;;;4.40;91.10;;;;;;5018578;28;20021;-86
2021/01/13 20:41:21;;;;;;;5.55;2.15;;;4.50;91.20;;;;;;5018916;28;20365;-86
2021/01/13 20:43:52;;;;;;;7.88;2.00;;;4.50;91.20;;;;;;5018360;28;20013;-86
2021/01/13 20:46:39;;;;;;;10.18;2.40;;;4.50;91.20;;;;;;5017695;28;20373;-86
2021/01/13 20:49:12;;;;;;;10.48;2.42;;;4.50;91.30;;;;;;5018118;28;20059;-85
2021/01/13 20:51:53;;;;;;;9.23;2.38;;;4.50;91.30;;;;;;5002403;28;20052;-86
2021/01/13 20:54:34;;;;;;;6.95;1.98;;;4.50;91.40;;;;;;5002580;28;20041;-86
2021/01/13 20:57:05;;;;;;;7.20;1.98;;;4.50;91.40;;;;;;5018062;28;20021;-87
2021/01/13 20:59:34;;;;;;;7.88;2.40;;;4.50;91.40;;;;;;5018098;28;20108;-85
2021/01/13 21:02:04;;;;;;;5.57;1.88;;;4.50;91.40;;;;;;5017669;28;20029;-86
2021/01/13 21:04:59;;;;;;;7.35;2.00;;;4.50;91.50;;;;;;5002243;28;20116;-87
2021/01/13 21:07:40;;;;;;;8.35;2.13;;;4.50;91.50;;;;;;5003850;28;20029;-87
2021/01/13 21:10:09;;;;;;;10.55;2.10;;;4.50;91.50;;;;;;5016301;28;20034;-87
2021/01/13 21:12:37;;;;;;;12.05;2.55;;;4.50;91.50;;;;;;5017310;28;20021;-85
2021/01/13 21:15:05;;;;;;;6.35;2.15;;;4.50;91.50;;;;;;5001459;28;20080;-86
2021/01/13 21:17:31;;;;;;;6.82;2.88;;;4.60;91.60;;;;;;5017271;28;20369;-86
2021/01/13 21:19:59;;;;;;;8.57;2.58;;;4.60;91.60;;;;;;5033977;28;20026;-87
2021/01/13 21:22:38;;;;;;;;;;;;;;;;;;;;;
2021/01/13 21:25:13;;;;;;;9.05;2.90;;;4.50;91.60;;;;;;5039268;28;20033;-87
2021/01/13 21:27:42;;;;;;;7.30;2.05;;;4.60;91.60;;;;;;5036858;28;20461;-87
2021/01/13 21:30:12;;;;;;;8.90;2.72;;;4.50;91.60;;;;;;5020834;28;20456;-86
2021/01/13 21:32:59;;;;;;;7.65;2.28;;;4.50;91.70;;;;;;5020022;28;20056;-86
2021/01/13 21:35:33;;;;;;;7.80;2.35;;;4.50;91.70;;;;;;5006000;28;20037;-88
2021/01/13 21:38:10;;;;;;;8.23;1.98;;;4.60;91.70;;;;;;5037180;28;20028;-86
2021/01/13 21:40:55;;;;;;;;;;;;;;;;;;;;;
2021/01/13 21:43:54;;;;;;;8.38;1.90;;;4.60;91.70;;;;;;5055497;28;20036;-85
2021/01/13 21:46:33;;;;;;;;;;;;;;;;;;;;;
2021/01/13 21:49:07;;;;;;;10.07;2.45;;;4.50;91.70;;;;;;5055613;28;20039;-85
2021/01/13 21:51:58;;;;;;;14.05;2.45;;;4.50;91.70;;;;;;5054358;28;20025;-86
2021/01/13 21:54:44;;;;;;;;;;;;;;;;;;;;;
2021/01/13 21:57:23;;;;;;;6.22;2.00;;;4.50;91.70;;;;;;5054883;28;20471;-86
2021/01/13 22:00:01;;;;;;;;;;;;;;;;;;;;;
2021/01/13 22:02:45;;;;;;;12.05;2.80;;;4.50;91.70;;;;;;5039116;28;20326;-86
2021/01/13 22:05:31;;;;;;;10.27;2.67;;;4.50;91.70;;;;;;5036257;28;20028;-86
2021/01/13 22:10:56;;;;;;;12.48;2.50;;;4.50;91.60;;;;;;5045919;28;20102;-85
2021/01/13 22:14:03;;;;;;;8.95;2.22;;;4.50;91.60;;;;;;5019489;28;20056;-86
2021/01/13 22:16:32;;;;;;;9.18;2.35;;;4.50;91.50;;;;;;5022787;28;20032;-86
2021/01/13 22:19:36;;;;;;;9.45;2.38;;;4.50;91.50;;;;;;5036029;28;20017;-86
2021/01/13 22:22:18;;;;;;;;;;;;;;;;;;;;;
2021/01/13 22:24:51;;;;;;;9.00;1.90;;;4.50;91.50;;;;;;5054758;28;20027;-86
2021/01/13 22:27:30;;;;;;;;;;;;;;;;;;;;;
2021/01/13 22:30:05;;;;;;;9.88;2.20;;;4.50;91.50;;;;;;5054603;28;20441;-85
2021/01/13 22:32:38;;;;;;;9.48;2.00;;;4.50;91.50;;;;;;5024259;28;20140;-86
2021/01/13 22:35:25;;;;;;;8.60;2.17;;;4.50;91.50;;;;;;5016321;28;20021;-86